createdAt,value
2023-11-15T00:01:24.818Z,10.60
2023-11-15T00:03:52.491Z,10.66
2023-11-15T00:06:21.022Z,10.65
2023-11-15T00:08:49.166Z,10.60
2023-11-15T00:11:20.231Z,10.62
2023-11-15T00:13:52.234Z,10.56
2023-11-15T00:16:20.173Z,10.62
2023-11-15T00:18:48.261Z,10.59
2023-11-15T00:21:16.691Z,10.62
2023-11-15T00:23:44.523Z,10.66
2023-11-15T00:26:12.297Z,10.70
2023-11-15T00:28:48.753Z,10.63
2023-11-15T00:31:16.457Z,10.72
2023-11-15T00:33:44.327Z,10.68
2023-11-15T00:36:12.830Z,10.63
2023-11-15T00:38:41.346Z,10.70
2023-11-15T00:41:10.404Z,10.65
2023-11-15T00:43:38.099Z,10.73
2023-11-15T00:46:06.425Z,10.70
2023-11-15T00:48:34.209Z,10.75
2023-11-15T00:51:02.513Z,10.76
2023-11-15T00:53:30.169Z,10.84
2023-11-15T00:55:57.797Z,10.84
2023-11-15T00:58:30.552Z,10.86
2023-11-15T01:01:01.047Z,10.80
2023-11-15T01:03:31.048Z,10.87
2023-11-15T01:06:01.395Z,10.81
2023-11-15T01:08:29.166Z,10.77
2023-11-15T01:10:57.830Z,10.77
2023-11-15T01:13:27.617Z,10.86
2023-11-15T01:15:55.479Z,10.81
2023-11-15T01:18:23.623Z,10.80
2023-11-15T01:20:52.796Z,10.84
2023-11-15T01:23:21.009Z,10.86
2023-11-15T01:25:48.927Z,10.83
2023-11-15T01:28:17.387Z,10.84
2023-11-15T01:30:45.056Z,10.87
2023-11-15T01:33:12.832Z,10.87
2023-11-15T01:35:40.732Z,10.89
2023-11-15T01:38:08.310Z,10.83
2023-11-15T01:40:39.276Z,10.87
2023-11-15T01:43:09.556Z,10.84
2023-11-15T01:45:37.997Z,10.90
2023-11-15T01:48:07.271Z,10.90
2023-11-15T01:50:36.733Z,10.86
2023-11-15T01:53:04.852Z,10.87
2023-11-15T01:55:33.640Z,10.93
2023-11-15T01:58:02.412Z,10.95
2023-11-15T02:00:30.399Z,10.95
2023-11-15T02:02:58.302Z,10.92
2023-11-15T02:05:27.416Z,10.84
2023-11-15T02:07:56.210Z,10.80
2023-11-15T02:10:24.656Z,10.80
2023-11-15T02:12:52.547Z,10.83
2023-11-15T02:15:22.683Z,10.77
2023-11-15T02:17:50.753Z,10.84
2023-11-15T02:20:19.709Z,10.87
2023-11-15T02:22:52.406Z,10.83
2023-11-15T02:25:22.408Z,10.86
2023-11-15T02:27:49.995Z,10.89
2023-11-15T02:30:17.980Z,10.93
2023-11-15T02:32:46.487Z,10.92
2023-11-15T02:35:14.359Z,10.86
2023-11-15T02:37:42.313Z,10.77
2023-11-15T02:40:11.946Z,10.86
2023-11-15T02:42:39.903Z,10.89
2023-11-15T02:45:07.947Z,10.92
2023-11-15T02:47:35.843Z,10.83
2023-11-15T02:50:04.687Z,10.83
2023-11-15T02:52:33.148Z,10.83
2023-11-15T02:55:00.998Z,10.84
2023-11-15T02:57:28.739Z,10.86
2023-11-15T02:59:56.460Z,10.89
2023-11-15T03:02:24.182Z,10.87
2023-11-15T03:04:51.837Z,10.87
2023-11-15T03:07:19.683Z,10.83
2023-11-15T03:09:47.557Z,10.93
2023-11-15T03:12:15.300Z,10.90
2023-11-15T03:14:43.058Z,10.97
2023-11-15T03:17:19.276Z,10.97
2023-11-15T03:19:47.845Z,10.96
2023-11-15T03:22:15.452Z,10.92
2023-11-15T03:24:51.244Z,10.89
2023-11-15T03:27:20.754Z,10.90
2023-11-15T03:29:48.861Z,10.93
2023-11-15T03:32:18.518Z,10.93
2023-11-15T03:34:47.407Z,10.95
2023-11-15T03:37:15.959Z,10.92
2023-11-15T03:39:43.898Z,10.95
2023-11-15T03:42:13.480Z,10.93
2023-11-15T03:44:41.401Z,10.89
2023-11-15T03:47:09.969Z,10.95
2023-11-15T03:49:37.654Z,10.95
2023-11-15T03:52:05.400Z,10.93
2023-11-15T03:54:34.188Z,10.90
2023-11-15T03:57:03.556Z,10.99
2023-11-15T03:59:31.377Z,10.96
2023-11-15T04:01:59.202Z,10.97
2023-11-15T04:04:27.589Z,10.89
2023-11-15T04:06:55.393Z,10.89
2023-11-15T04:09:23.335Z,10.92
2023-11-15T04:11:52.836Z,10.93
2023-11-15T04:14:23.216Z,10.92
2023-11-15T04:16:51.247Z,10.89
2023-11-15T04:19:22.404Z,10.97
2023-11-15T04:22:00.934Z,10.90
2023-11-15T04:24:40.309Z,10.90
2023-11-15T04:27:08.715Z,10.87
2023-11-15T04:29:39.134Z,10.86
2023-11-15T04:32:07.776Z,10.96
2023-11-15T04:34:35.839Z,10.97
2023-11-15T04:37:03.889Z,10.97
2023-11-15T04:39:32.332Z,10.96
2023-11-15T04:42:01.087Z,10.96
2023-11-15T04:44:28.927Z,10.96
2023-11-15T04:46:56.810Z,10.92
2023-11-15T04:49:24.581Z,10.97
2023-11-15T04:51:52.868Z,10.97
2023-11-15T04:54:20.586Z,11.00
2023-11-15T04:56:48.509Z,10.93
2023-11-15T04:59:16.317Z,10.97
2023-11-15T05:01:47.177Z,11.06
2023-11-15T05:04:15.972Z,11.08
2023-11-15T05:06:45.720Z,11.07
2023-11-15T05:09:14.039Z,11.01
2023-11-15T05:11:42.063Z,11.07
2023-11-15T05:14:09.874Z,11.13
2023-11-15T05:16:37.691Z,11.08
2023-11-15T05:19:05.617Z,11.07
2023-11-15T05:21:33.875Z,11.08
2023-11-15T05:24:01.702Z,11.00
2023-11-15T05:26:30.114Z,11.08
2023-11-15T05:28:59.247Z,11.08
2023-11-15T05:31:27.219Z,11.01
2023-11-15T05:33:55.501Z,11.00
2023-11-15T05:36:23.402Z,11.06
2023-11-15T05:38:51.257Z,10.95
2023-11-15T05:41:19.121Z,10.96
2023-11-15T05:43:46.874Z,10.93
2023-11-15T05:46:14.743Z,10.95
2023-11-15T05:48:44.132Z,10.92
2023-11-15T05:51:11.934Z,10.92
2023-11-15T05:53:39.731Z,10.90
2023-11-15T05:56:08.068Z,10.93
2023-11-15T05:58:35.668Z,11.00
2023-11-15T06:01:04.500Z,10.97
2023-11-15T06:03:32.243Z,11.00
2023-11-15T06:06:00.684Z,10.97
2023-11-15T06:08:28.518Z,10.92
2023-11-15T06:10:56.182Z,10.99
2023-11-15T06:13:26.023Z,11.04
2023-11-15T06:15:53.835Z,10.97
2023-11-15T06:18:22.942Z,10.96
2023-11-15T06:20:51.313Z,10.89
2023-11-15T06:23:19.136Z,10.90
2023-11-15T06:25:47.666Z,10.84
2023-11-15T06:28:15.384Z,10.97
2023-11-15T06:30:44.379Z,10.97
2023-11-15T06:33:12.263Z,10.99
2023-11-15T06:35:39.946Z,10.90
2023-11-15T06:38:07.781Z,10.95
2023-11-15T06:40:35.452Z,10.97
2023-11-15T06:43:03.036Z,10.95
2023-11-15T06:45:31.295Z,11.03
2023-11-15T06:48:01.882Z,11.01
2023-11-15T06:50:29.748Z,11.03
2023-11-15T06:52:57.764Z,11.07
2023-11-15T06:55:25.538Z,11.13
2023-11-15T06:57:53.265Z,11.10
2023-11-15T07:00:23.290Z,11.11
2023-11-15T07:02:51.022Z,11.14
2023-11-15T07:05:19.210Z,11.16
2023-11-15T07:07:47.522Z,11.08
2023-11-15T07:10:16.806Z,11.11
2023-11-15T07:12:45.144Z,11.11
2023-11-15T07:15:16.552Z,11.04
2023-11-15T07:17:45.891Z,11.03
2023-11-15T07:20:16.012Z,11.08
2023-11-15T07:22:44.010Z,11.04
2023-11-15T07:25:13.979Z,11.06
2023-11-15T07:27:41.940Z,11.06
2023-11-15T07:30:10.284Z,11.13
2023-11-15T07:32:39.328Z,11.13
2023-11-15T07:35:10.119Z,11.07
2023-11-15T07:37:38.707Z,11.13
2023-11-15T07:40:11.379Z,11.18
2023-11-15T07:42:41.111Z,11.23
2023-11-15T07:45:09.599Z,11.27
2023-11-15T07:47:38.726Z,11.20
2023-11-15T07:50:08.076Z,11.17
2023-11-15T07:52:35.924Z,11.26
2023-11-15T07:55:04.170Z,11.44
2023-11-15T07:57:32.386Z,11.39
2023-11-15T08:00:00.151Z,11.37
2023-11-15T08:02:27.963Z,11.28
2023-11-15T08:04:55.909Z,11.35
2023-11-15T08:07:23.550Z,11.42
2023-11-15T08:09:51.299Z,11.34
2023-11-15T08:12:19.701Z,11.32
2023-11-15T08:14:47.795Z,11.35
2023-11-15T08:17:15.913Z,11.34
2023-11-15T08:19:48.011Z,11.27
2023-11-15T08:22:17.782Z,11.23
2023-11-15T08:24:48.345Z,11.21
2023-11-15T08:27:16.605Z,11.21
2023-11-15T08:29:44.871Z,11.30
2023-11-15T08:32:12.826Z,11.27
2023-11-15T08:34:40.936Z,11.34
2023-11-15T08:37:09.556Z,11.37
2023-11-15T08:39:38.155Z,11.27
2023-11-15T08:42:07.677Z,11.20
2023-11-15T08:44:37.515Z,11.17
2023-11-15T08:47:05.462Z,11.20
2023-11-15T08:49:33.164Z,11.24
2023-11-15T08:52:01.452Z,11.28
2023-11-15T08:54:29.247Z,11.23
2023-11-15T08:56:57.276Z,11.21
2023-11-15T08:59:28.700Z,11.32
2023-11-15T09:01:57.572Z,11.27
2023-11-15T09:04:26.037Z,11.34
2023-11-15T09:06:55.795Z,11.42
2023-11-15T09:09:23.604Z,11.38
2023-11-15T09:11:52.899Z,11.31
2023-11-15T09:14:22.882Z,11.45
2023-11-15T09:16:52.295Z,11.51
2023-11-15T09:19:22.306Z,11.62
2023-11-15T09:21:50.730Z,11.68
2023-11-15T09:24:26.194Z,11.82
2023-11-15T09:26:53.948Z,11.92
2023-11-15T09:29:21.812Z,12.02
2023-11-15T09:31:51.393Z,11.95
2023-11-15T09:34:19.444Z,11.96
2023-11-15T09:36:49.046Z,12.00
2023-11-15T09:39:18.084Z,11.95
2023-11-15T09:41:55.104Z,11.87
2023-11-15T09:44:27.224Z,11.82
2023-11-15T09:46:58.836Z,11.65
2023-11-15T09:49:29.232Z,11.64
2023-11-15T09:52:00.328Z,11.65
2023-11-15T09:54:30.335Z,11.59
2023-11-15T09:57:00.680Z,11.62
2023-11-15T09:59:31.816Z,11.68
2023-11-15T10:01:59.677Z,11.76
2023-11-15T10:04:29.702Z,11.85
2023-11-15T10:07:05.399Z,12.02
2023-11-15T10:09:36.956Z,11.97
2023-11-15T10:12:07.589Z,11.89
2023-11-15T10:14:39.342Z,11.83
2023-11-15T10:17:08.309Z,11.69
2023-11-15T10:19:36.519Z,11.68
2023-11-15T10:22:06.479Z,11.61
2023-11-15T10:24:36.463Z,11.62
2023-11-15T10:27:16.382Z,11.58
2023-11-15T10:29:48.297Z,11.66
2023-11-15T10:32:22.448Z,11.76
2023-11-15T10:34:52.885Z,11.76
2023-11-15T10:37:20.907Z,11.74
2023-11-15T10:39:49.426Z,11.65
2023-11-15T10:42:19.467Z,11.74
2023-11-15T10:44:48.834Z,11.97
2023-11-15T10:47:23.914Z,12.17
2023-11-15T10:50:03.376Z,12.24
2023-11-15T10:52:33.440Z,12.33
2023-11-15T10:55:03.343Z,12.09
2023-11-15T10:57:33.703Z,12.05
2023-11-15T11:00:16.907Z,11.96
2023-11-15T11:02:46.752Z,11.97
2023-11-15T11:05:46.552Z,12.05
2023-11-15T11:08:36.300Z,12.10
2023-11-15T11:11:22.049Z,12.26
2023-11-15T11:14:31.707Z,12.33
2023-11-15T11:17:01.199Z,12.37
2023-11-15T11:19:28.948Z,12.44
2023-11-15T11:22:09.801Z,12.54
2023-11-15T11:24:46.914Z,12.65
2023-11-15T11:27:17.995Z,12.71
2023-11-15T11:30:01.627Z,12.65
2023-11-15T11:32:36.819Z,12.53
2023-11-15T11:35:15.193Z,12.50
2023-11-15T11:37:48.750Z,12.26
2023-11-15T11:40:36.565Z,12.33
2023-11-15T11:43:23.751Z,12.34
2023-11-15T11:45:56.330Z,12.50
2023-11-15T11:48:28.455Z,12.80
2023-11-15T11:50:56.276Z,13.11
2023-11-15T11:53:24.351Z,13.09
2023-11-15T11:55:56.151Z,13.01
2023-11-15T11:58:29.303Z,12.81
2023-11-15T12:01:04.378Z,12.55
2023-11-15T12:03:34.049Z,12.32
2023-11-15T12:06:10.398Z,12.13
2023-11-15T12:08:40.457Z,11.97
2023-11-15T12:11:11.850Z,11.95
2023-11-15T12:13:44.243Z,11.85
2023-11-15T12:16:19.067Z,11.72
2023-11-15T12:19:16.331Z,11.66
2023-11-15T12:21:44.955Z,11.65
2023-11-15T12:24:14.577Z,11.59
2023-11-15T12:26:48.082Z,11.52
2023-11-15T12:29:24.753Z,11.50
2023-11-15T12:31:57.099Z,11.44
2023-11-15T12:34:27.164Z,11.37
2023-11-15T12:36:55.593Z,11.37
2023-11-15T12:39:23.850Z,11.38
2023-11-15T12:41:54.643Z,11.41
2023-11-15T12:44:22.864Z,11.48
2023-11-15T12:46:56.619Z,11.57
2023-11-15T12:49:25.382Z,11.62
2023-11-15T12:51:53.200Z,11.62
2023-11-15T12:54:20.963Z,11.66
2023-11-15T12:57:08.509Z,11.66
2023-11-15T12:59:40.213Z,11.81
2023-11-15T13:02:08.709Z,12.05
2023-11-15T13:04:52.035Z,12.44
2023-11-15T13:07:20.362Z,12.61
2023-11-15T13:09:49.570Z,12.92
2023-11-15T13:12:27.607Z,13.24
2023-11-15T13:14:56.186Z,13.42
2023-11-15T13:17:28.415Z,13.32
2023-11-15T13:20:00.753Z,13.12
2023-11-15T13:22:30.247Z,12.96
2023-11-15T13:24:57.980Z,12.80
2023-11-15T13:27:25.751Z,12.61
2023-11-15T13:29:53.553Z,12.55
2023-11-15T13:32:21.243Z,12.54
2023-11-15T13:34:52.044Z,12.61
2023-11-15T13:37:20.276Z,12.65
2023-11-15T13:39:48.149Z,12.58
2023-11-15T13:42:16.019Z,12.71
2023-11-15T13:44:43.888Z,12.80
2023-11-15T13:47:12.273Z,12.88
2023-11-15T13:49:44.400Z,12.89
2023-11-15T13:52:12.643Z,12.85
2023-11-15T13:54:40.328Z,12.81
2023-11-15T13:57:08.864Z,12.69
2023-11-15T13:59:36.608Z,12.60
2023-11-15T14:02:04.382Z,12.54
2023-11-15T14:04:32.089Z,12.41
2023-11-15T14:06:59.891Z,12.36
2023-11-15T14:09:29.978Z,12.27
2023-11-15T14:12:00.631Z,12.33
2023-11-15T14:14:28.594Z,12.36
2023-11-15T14:16:57.640Z,12.37
2023-11-15T14:19:25.934Z,12.34
2023-11-15T14:21:53.717Z,12.30
2023-11-15T14:24:21.927Z,12.27
2023-11-15T14:26:49.843Z,12.09
2023-11-15T14:29:18.757Z,12.05
2023-11-15T14:31:46.570Z,12.14
2023-11-15T14:34:14.434Z,12.23
2023-11-15T14:36:46.592Z,12.17
2023-11-15T14:39:14.941Z,12.20
2023-11-15T14:41:43.092Z,12.22
2023-11-15T14:44:10.863Z,12.16
2023-11-15T14:46:38.487Z,12.06
2023-11-15T14:49:06.757Z,11.96
2023-11-15T14:51:34.503Z,12.02
2023-11-15T14:54:03.221Z,11.97
2023-11-15T14:56:31.092Z,11.95
2023-11-15T14:59:00.445Z,12.00
2023-11-15T15:01:28.794Z,11.96
2023-11-15T15:03:56.917Z,11.85
2023-11-15T15:06:25.706Z,11.74
2023-11-15T15:08:53.516Z,11.76
2023-11-15T15:11:21.325Z,11.66
2023-11-15T15:13:49.021Z,11.59
2023-11-15T15:16:21.237Z,11.62
2023-11-15T15:18:49.034Z,11.59
2023-11-15T15:21:16.760Z,11.52
2023-11-15T15:23:44.529Z,11.47
2023-11-15T15:26:13.985Z,11.51
2023-11-15T15:28:41.691Z,11.45
2023-11-15T15:31:09.698Z,11.39
2023-11-15T15:33:38.122Z,11.32
2023-11-15T15:36:06.304Z,11.27
2023-11-15T15:38:34.474Z,11.24
2023-11-15T15:41:04.478Z,11.21
2023-11-15T15:43:32.566Z,11.24
2023-11-15T15:46:00.478Z,11.14
2023-11-15T15:48:28.435Z,11.16
2023-11-15T15:50:56.205Z,11.18
2023-11-15T15:53:23.930Z,11.13
2023-11-15T15:55:53.014Z,11.10
2023-11-15T15:58:21.768Z,11.04
2023-11-15T16:00:49.611Z,11.08
2023-11-15T16:03:18.492Z,11.10
2023-11-15T16:05:46.283Z,11.04
2023-11-15T16:08:14.075Z,11.03
2023-11-15T16:10:42.078Z,10.93
2023-11-15T16:13:10.872Z,10.89
2023-11-15T16:15:39.299Z,10.80
2023-11-15T16:18:07.370Z,10.77
2023-11-15T16:20:35.119Z,10.75
2023-11-15T16:23:02.753Z,10.76
2023-11-15T16:25:30.720Z,10.70
2023-11-15T16:27:58.396Z,10.72
2023-11-15T16:30:27.028Z,10.69
2023-11-15T16:32:54.944Z,10.68
2023-11-15T16:35:22.886Z,10.69
2023-11-15T16:37:50.704Z,10.63
2023-11-15T16:40:18.574Z,10.62
2023-11-15T16:42:46.450Z,10.51
2023-11-15T16:45:14.591Z,10.52
2023-11-15T16:47:42.709Z,10.53
2023-11-15T16:50:10.633Z,10.46
2023-11-15T16:52:38.347Z,10.41
2023-11-15T16:55:07.112Z,10.39
2023-11-15T16:57:34.882Z,10.35
2023-11-15T17:00:02.952Z,10.32
2023-11-15T17:02:31.007Z,10.34
2023-11-15T17:04:58.691Z,10.34
2023-11-15T17:07:26.370Z,10.32
2023-11-15T17:09:54.236Z,10.34
2023-11-15T17:12:24.465Z,10.29
2023-11-15T17:14:52.415Z,10.28
2023-11-15T17:17:20.105Z,10.29
2023-11-15T17:19:47.916Z,10.29
2023-11-15T17:22:15.619Z,10.24
2023-11-15T17:24:44.342Z,10.24
2023-11-15T17:27:12.071Z,10.25
2023-11-15T17:29:40.769Z,10.24
2023-11-15T17:32:08.645Z,10.24
2023-11-15T17:34:37.243Z,10.21
2023-11-15T17:37:05.009Z,10.10
2023-11-15T17:39:33.397Z,10.12
2023-11-15T17:42:01.543Z,10.14
2023-11-15T17:44:30.670Z,10.08
2023-11-15T17:46:58.645Z,10.08
2023-11-15T17:49:26.386Z,10.11
2023-11-15T17:51:54.684Z,10.07
2023-11-15T17:54:24.079Z,10.08
2023-11-15T17:56:51.881Z,10.12
2023-11-15T17:59:19.591Z,10.14
2023-11-15T18:01:47.511Z,10.11
2023-11-15T18:04:16.416Z,10.08
2023-11-15T18:06:44.956Z,10.05
2023-11-15T18:09:13.422Z,9.95
2023-11-15T18:11:42.004Z,9.97
2023-11-15T18:14:09.926Z,10.01
2023-11-15T18:16:37.706Z,9.98
2023-11-15T18:19:13.187Z,10.04
2023-11-15T18:21:41.703Z,10.02
2023-11-15T18:24:10.739Z,10.05
2023-11-15T18:26:40.212Z,10.10
2023-11-15T18:29:07.944Z,10.11
2023-11-15T18:31:35.902Z,10.11
2023-11-15T18:34:04.809Z,10.04
2023-11-15T18:36:33.125Z,10.04
2023-11-15T18:39:01.931Z,10.10
2023-11-15T18:41:29.587Z,10.01
2023-11-15T18:44:00.929Z,9.94
2023-11-15T18:46:30.311Z,9.95
2023-11-15T18:48:58.411Z,9.91
2023-11-15T18:51:29.361Z,9.93
2023-11-15T18:53:58.010Z,9.90
2023-11-15T18:56:27.341Z,9.86
2023-11-15T18:58:56.062Z,9.80
2023-11-15T19:01:23.768Z,9.80
2023-11-15T19:03:52.373Z,9.77
2023-11-15T19:06:22.884Z,9.76
2023-11-15T19:08:50.568Z,9.73
2023-11-15T19:11:19.389Z,9.70
2023-11-15T19:13:48.056Z,9.66
2023-11-15T19:16:19.883Z,9.63
2023-11-15T19:18:48.036Z,9.62
2023-11-15T19:21:16.554Z,9.64
2023-11-15T19:23:44.330Z,9.60
2023-11-15T19:26:12.625Z,9.54
2023-11-15T19:28:42.776Z,9.54
2023-11-15T19:31:10.777Z,9.53
2023-11-15T19:33:38.390Z,9.57
2023-11-15T19:36:06.747Z,9.53
2023-11-15T19:38:35.162Z,9.52
2023-11-15T19:41:05.406Z,9.52
2023-11-15T19:43:33.112Z,9.50
2023-11-15T19:46:00.728Z,9.47
2023-11-15T19:48:28.792Z,9.49
2023-11-15T19:50:56.536Z,9.46
2023-11-15T19:53:27.136Z,9.49
2023-11-15T19:55:55.658Z,9.54
2023-11-15T19:58:23.511Z,9.52
2023-11-15T20:00:51.315Z,9.52
2023-11-15T20:03:20.240Z,9.46
2023-11-15T20:05:48.044Z,9.40
2023-11-15T20:08:17.070Z,9.40
2023-11-15T20:10:46.436Z,9.43
2023-11-15T20:13:16.722Z,9.40
2023-11-15T20:15:44.912Z,9.38
2023-11-15T20:18:12.651Z,9.25
2023-11-15T20:20:44.741Z,9.28
2023-11-15T20:23:14.942Z,9.32
2023-11-15T20:25:43.335Z,9.28
2023-11-15T20:28:12.237Z,9.25
2023-11-15T20:30:40.998Z,9.22
2023-11-15T20:33:08.737Z,9.21
2023-11-15T20:35:37.760Z,9.25
2023-11-15T20:38:06.163Z,9.21
2023-11-15T20:40:34.780Z,9.15
2023-11-15T20:43:02.879Z,9.15
2023-11-15T20:45:30.961Z,9.11
2023-11-15T20:48:01.311Z,9.14
2023-11-15T20:50:29.218Z,9.14
2023-11-15T20:52:57.132Z,9.08
2023-11-15T20:55:25.368Z,9.11
2023-11-15T20:57:54.098Z,9.05
2023-11-15T21:00:26.957Z,9.14
2023-11-15T21:02:56.204Z,9.02
2023-11-15T21:05:24.173Z,9.07
2023-11-15T21:07:51.805Z,9.01
2023-11-15T21:10:20.330Z,8.98
2023-11-15T21:12:48.177Z,8.92
2023-11-15T21:15:16.966Z,8.97
2023-11-15T21:17:47.025Z,8.95
2023-11-15T21:20:14.915Z,8.95
2023-11-15T21:22:44.871Z,8.95
2023-11-15T21:25:14.093Z,8.98
2023-11-15T21:27:43.653Z,8.98
2023-11-15T21:30:17.531Z,8.98
2023-11-15T21:32:46.101Z,9.02
2023-11-15T21:35:14.767Z,9.02
2023-11-15T21:37:45.301Z,9.07
2023-11-15T21:40:19.408Z,8.97
2023-11-15T21:42:48.760Z,8.95
2023-11-15T21:45:18.805Z,8.98
2023-11-15T21:47:47.603Z,8.95
2023-11-15T21:50:16.868Z,8.87
2023-11-15T21:52:45.595Z,8.88
2023-11-15T21:55:13.599Z,8.83
2023-11-15T21:57:42.069Z,8.85
2023-11-15T22:00:14.762Z,8.84
2023-11-15T22:02:43.228Z,8.83
2023-11-15T22:05:11.021Z,8.73
2023-11-15T22:07:39.814Z,8.74
2023-11-15T22:10:13.604Z,8.71
2023-11-15T22:12:42.457Z,8.66
2023-11-15T22:15:10.798Z,8.70
2023-11-15T22:17:40.560Z,8.67
2023-11-15T22:20:11.837Z,8.63
2023-11-15T22:22:42.497Z,8.64
2023-11-15T22:25:11.054Z,8.61
2023-11-15T22:27:38.767Z,8.63
2023-11-15T22:30:08.488Z,8.63
2023-11-15T22:32:36.411Z,8.64
2023-11-15T22:35:04.633Z,8.66
2023-11-15T22:37:34.197Z,8.64
2023-11-15T22:40:02.230Z,8.67
2023-11-15T22:42:29.942Z,8.61
2023-11-15T22:44:57.697Z,8.59
2023-11-15T22:47:25.478Z,8.54
2023-11-15T22:49:53.521Z,8.63
2023-11-15T22:52:21.310Z,8.64
2023-11-15T22:54:49.271Z,8.70
2023-11-15T22:57:17.006Z,8.74
2023-11-15T22:59:44.772Z,8.63
2023-11-15T23:02:12.555Z,8.64
2023-11-15T23:04:44.191Z,8.60
2023-11-15T23:07:12.228Z,8.57
2023-11-15T23:09:39.857Z,8.61
2023-11-15T23:12:08.072Z,8.56
2023-11-15T23:14:35.945Z,8.56
2023-11-15T23:17:04.171Z,8.54
2023-11-15T23:19:31.884Z,8.49
2023-11-15T23:22:04.039Z,8.53
2023-11-15T23:24:33.710Z,8.47
2023-11-15T23:27:01.574Z,8.49
2023-11-15T23:29:30.551Z,8.49
2023-11-15T23:31:58.507Z,8.49
2023-11-15T23:34:26.160Z,8.42
2023-11-15T23:36:53.748Z,8.42
2023-11-15T23:39:24.254Z,8.40
2023-11-15T23:41:52.346Z,8.40
2023-11-15T23:44:19.968Z,8.39
2023-11-15T23:46:51.712Z,8.36
2023-11-15T23:49:24.449Z,8.37
2023-11-15T23:51:52.288Z,8.32
2023-11-15T23:54:19.989Z,8.30
2023-11-15T23:56:48.009Z,8.26
2023-11-15T23:59:15.674Z,8.28
